Melcher Dallas, Iowa
Current Conditions -  °F | °C
As of 6:15 AM on Thursday 18 Dec 2014 (Local Time) from KOXV Reporting Station
Overcast Overcast  
Wind Chill: 16°   Ceiling: 4900
Heat Index: 23°   Visibility: 10mi
Dew Point: 16°   Wind: 6mph
Humidity: 74%   Direction: 80°E
Pressure: 30.26"   Gusts: NA
Location:  41.2269°N, 93.1611°W
Report Text: KOXV 181215Z AUTO 08005KT 10SM BKN049 OVC060 M05/M09 A3026 RMK AO2
Loading
Personal Weather Stations






























Interactive Weather Map New forecast layout! Learn more

10-Day Weather Forecast

Advertisements
Track Severe Weather on mobile